Weather History for Richmond, KY

Change the Weather History Date:

Wednesday, May 15, 2013

  Actual Average (KLOZ) Record (KLOZ)
Temperature  
Mean Temperature 74 °F 64 °F  
Max Temperature 82 °F 76 °F 88 °F (1991)
Min Temperature 66 °F 53 °F 37 °F (1959)
Degree Days  
Heating Degree Days 0 3  
Month to date heating degree days 61  
Since 1 July heating degree days 4162  
Cooling Degree Days 9 3  
Month to date cooling degree days 27  
Year to date cooling degree days 53  
Growing Degree Days 24 (Base 50)    
Moisture  
Dew Point 53 °F    
Average Humidity 50    
Maximum Humidity 64    
Minimum Humidity 30    
Precipitation  
Precipitation 0.00 in 0.18 in 2.04 in (1983)
Sea Level Pressure  
Sea Level Pressure 29.99 in    
Wind  
Wind Speed 11 mph (SW)    
Max Wind Speed 17 mph    
Max Gust Speed 25 mph    
Visibility 10 miles    
Events      
T = Trace of Precipitation, MM = Missing Value Source: NWS Daily Summary

Daily Weather History Graph

Daily Weather History Graph

Search for Another Location

Airport:

Trip Planner

Search our weather history database for the weather conditions in past years. The results will help you decide how hot, cold, wet, or windy it might be!

Date:

Astronomy

May. 15, 2013 Rise Set
Actual Time 6:27 AM EDT 8:40 PM EDT
Civil Twilight 5:58 AM EDT 9:09 PM EDT
Nautical Twilight 5:22 AM EDT 9:45 PM EDT
Astronomical Twilight 4:43 AM EDT 10:25 PM EDT
Moon 11:01 AM EDT (5/15) 12:26 AM EDT (5/15)
Length of Visible Light 15h 11m
Length of Day
14h 12m
Waxing Crescent, 26% of the Moon is Illuminated
May 15
Waxing Crescent
May 18
First Quarter
May 25
Full
May 31
Last Quarter
Jun 8
New

Hourly Weather History & Observations

Time (EDT) Temp. Heat Index Dew Point Humidity Pressure Visibility Wind Dir Wind Speed Gust Speed Precip Events Conditions
12:15 AM 69.8 °F - 55.4 °F 60% 29.98 in 10.0 mi SSW 6.9 mph - N/A   Clear
12:35 AM 68.0 °F - 55.4 °F 64% 29.99 in 10.0 mi SSW 5.8 mph - N/A   Clear
12:55 AM 68.0 °F - 55.4 °F 64% 29.99 in 10.0 mi SSW 6.9 mph - N/A   Clear
1:15 AM 68.0 °F - 55.4 °F 64% 29.98 in 10.0 mi SSW 11.5 mph - N/A   Clear
1:35 AM 68.0 °F - 55.4 °F 64% 29.98 in 10.0 mi SW 10.4 mph - N/A   Clear
1:55 AM 68.0 °F - 55.4 °F 64% 29.97 in 7.0 mi SW 12.7 mph 19.6 mph N/A   Clear
2:35 AM 68.0 °F - 55.4 °F 64% 29.97 in 10.0 mi SW 12.7 mph 18.4 mph N/A   Clear
2:55 AM 68.0 °F - 55.4 °F 64% 29.97 in 10.0 mi SW 12.7 mph 23.0 mph N/A   Clear
3:15 AM 68.0 °F - 55.4 °F 64% 29.97 in 10.0 mi SW 15.0 mph 19.6 mph N/A   Clear
3:35 AM 68.0 °F - 55.4 °F 64% 29.97 in 10.0 mi SW 13.8 mph 19.6 mph N/A   Clear
3:55 AM 68.0 °F - 55.4 °F 64% 29.97 in 10.0 mi SW 15.0 mph 20.7 mph N/A   Clear
4:15 AM 68.0 °F - 53.6 °F 60% 29.97 in 10.0 mi SW 15.0 mph 19.6 mph N/A   Clear
4:35 AM 68.0 °F - 53.6 °F 60% 29.97 in 10.0 mi WSW 16.1 mph 24.2 mph N/A   Clear
4:55 AM 68.0 °F - 53.6 °F 60% 29.97 in 10.0 mi SW 12.7 mph 21.9 mph N/A   Clear
5:15 AM 68.0 °F - 53.6 °F 60% 29.98 in 10.0 mi SW 13.8 mph 18.4 mph N/A   Clear
5:35 AM 66.2 °F - 53.6 °F 64% 29.98 in 10.0 mi SW 11.5 mph 18.4 mph N/A   Clear
5:55 AM 66.2 °F - 53.6 °F 64% 29.99 in 10.0 mi SW 12.7 mph 18.4 mph N/A   Clear
6:15 AM 66.2 °F - 53.6 °F 64% 29.99 in 10.0 mi WSW 10.4 mph 18.4 mph N/A   Clear
6:35 AM 66.2 °F - 53.6 °F 64% 30.00 in 10.0 mi SW 11.5 mph 16.1 mph N/A   Clear
6:55 AM 66.2 °F - 53.6 °F 64% 30.01 in 10.0 mi SW 10.4 mph 17.3 mph N/A   Clear
7:15 AM 66.2 °F - 53.6 °F 64% 30.02 in 10.0 mi SW 11.5 mph 18.4 mph N/A   Clear
7:35 AM 68.0 °F - 53.6 °F 60% 30.02 in 10.0 mi SW 11.5 mph 19.6 mph N/A   Clear
7:55 AM 68.0 °F - 53.6 °F 60% 30.03 in 10.0 mi WSW 15.0 mph 20.7 mph N/A   Clear
8:15 AM 68.0 °F - 55.4 °F 64% 30.03 in 10.0 mi SW 15.0 mph 19.6 mph N/A   Clear
8:35 AM 69.8 °F - 55.4 °F 60% 30.04 in 10.0 mi WSW 16.1 mph 21.9 mph N/A   Clear
8:55 AM 69.8 °F - 55.4 °F 60% 30.05 in 10.0 mi WSW 11.5 mph 21.9 mph N/A   Clear
9:15 AM 71.6 °F - 55.4 °F 57% 30.05 in 10.0 mi WSW 15.0 mph 21.9 mph N/A   Clear
9:35 AM 71.6 °F - 55.4 °F 57% 30.05 in 10.0 mi WSW 12.7 mph 19.6 mph N/A   Clear
9:55 AM 71.6 °F - 55.4 °F 57% 30.05 in 10.0 mi WSW 15.0 mph 21.9 mph N/A   Clear
10:15 AM 73.4 °F - 57.2 °F 57% 30.05 in 10.0 mi WSW 13.8 mph 20.7 mph N/A   Clear
10:35 AM 75.2 °F - 57.2 °F 53% 30.05 in 10.0 mi WSW 11.5 mph 19.6 mph N/A   Clear
10:55 AM 75.2 °F - 57.2 °F 53% 30.05 in 10.0 mi WSW 17.3 mph 21.9 mph N/A   Clear
11:15 AM 75.2 °F - 57.2 °F 53% 30.05 in 10.0 mi WSW 9.2 mph 18.4 mph N/A   Clear
11:35 AM 77.0 °F - 57.2 °F 50% 30.05 in 10.0 mi West 12.7 mph 20.7 mph N/A   Clear
11:55 AM 77.0 °F - 57.2 °F 50% 30.05 in 10.0 mi WSW 12.7 mph 20.7 mph N/A   Clear
12:15 PM 77.0 °F - 57.2 °F 50% 30.05 in 10.0 mi SW 12.7 mph 16.1 mph N/A   Clear
12:35 PM 78.8 °F - 57.2 °F 47% 30.03 in 10.0 mi WSW 11.5 mph 20.7 mph N/A   Clear
12:55 PM 78.8 °F - 57.2 °F 47% 30.03 in 10.0 mi WSW 17.3 mph - N/A   Clear
1:15 PM 78.8 °F - 57.2 °F 47% 30.03 in 10.0 mi WSW 10.4 mph 18.4 mph N/A   Clear
1:55 PM 80.6 °F 80.5 °F 55.4 °F 42% 30.02 in 10.0 mi West 12.7 mph 20.7 mph N/A   Clear
2:15 PM 82.4 °F 81.7 °F 55.4 °F 39% 30.02 in 10.0 mi West 13.8 mph - N/A   Clear
2:35 PM 82.4 °F 81.4 °F 53.6 °F 37% 30.01 in 10.0 mi WSW 12.7 mph 17.3 mph N/A   Clear
2:55 PM 82.4 °F 81.4 °F 53.6 °F 37% 30.00 in 10.0 mi WSW 11.5 mph 23.0 mph N/A   Clear
3:15 PM 82.4 °F - 51.8 °F 35% 29.99 in 10.0 mi WSW 12.7 mph 19.6 mph N/A   Clear
3:35 PM 82.4 °F - 51.8 °F 35% 29.99 in 10.0 mi WSW 13.8 mph 21.9 mph N/A   Clear
3:55 PM 82.4 °F - 51.8 °F 35% 29.98 in 10.0 mi WSW 16.1 mph 20.7 mph N/A   Clear
4:15 PM 82.4 °F - 51.8 °F 35% 29.98 in 10.0 mi WSW 11.5 mph 17.3 mph N/A   Clear
4:35 PM 82.4 °F - 50.0 °F 32% 29.97 in 10.0 mi WSW 11.5 mph 25.3 mph N/A   Clear
4:55 PM 82.4 °F - 51.8 °F 35% 29.97 in 10.0 mi WSW 11.5 mph 18.4 mph N/A   Clear
5:35 PM 82.4 °F - 50.0 °F 32% 29.95 in 10.0 mi SW 12.7 mph - N/A   Clear
5:55 PM 82.4 °F - 48.2 °F 30% 29.94 in 10.0 mi SW 11.5 mph 19.6 mph N/A   Clear
6:15 PM 82.4 °F - 48.2 °F 30% 29.94 in 10.0 mi WSW 12.7 mph 21.9 mph N/A   Clear
6:35 PM 80.6 °F - 48.2 °F 32% 29.94 in 10.0 mi WSW 10.4 mph 16.1 mph N/A   Clear
6:55 PM 80.6 °F - 48.2 °F 32% 29.93 in 10.0 mi WSW 11.5 mph 23.0 mph N/A   Clear
7:15 PM 78.8 °F - 48.2 °F 34% 29.93 in 10.0 mi WSW 10.4 mph - N/A   Clear
7:35 PM 78.8 °F - 50.0 °F 36% 29.93 in 10.0 mi WSW 9.2 mph - N/A   Clear
7:55 PM 77.0 °F - 53.6 °F 44% 29.94 in 10.0 mi SW 9.2 mph - N/A   Clear
8:15 PM 77.0 °F - 53.6 °F 44% 29.94 in 10.0 mi SW 9.2 mph - N/A   Clear
8:35 PM 75.2 °F - 51.8 °F 44% 29.95 in 7.0 mi WSW 8.1 mph - N/A   Clear
8:55 PM 73.4 °F - 51.8 °F 47% 29.95 in 10.0 mi SW 9.2 mph - N/A   Clear
9:15 PM 73.4 °F - 50.0 °F 44% 29.95 in 10.0 mi SW 8.1 mph - N/A   Clear
9:35 PM 71.6 °F - 48.2 °F 43% 29.96 in 10.0 mi SW 8.1 mph - N/A   Clear
9:55 PM 71.6 °F - 48.2 °F 43% 29.96 in 10.0 mi WSW 6.9 mph - N/A   Clear
10:15 PM 69.8 °F - 48.2 °F 46% 29.97 in 10.0 mi WSW 6.9 mph - N/A   Clear
10:35 PM 69.8 °F - 48.2 °F 46% 29.98 in 10.0 mi SW 6.9 mph - N/A   Clear
10:55 PM 69.8 °F - 48.2 °F 46% 29.98 in 10.0 mi SW 8.1 mph - N/A   Clear
11:15 PM 69.8 °F - 48.2 °F 46% 29.97 in 10.0 mi SW 9.2 mph - N/A   Clear
11:35 PM 68.0 °F - 48.2 °F 49% 29.97 in 10.0 mi SW 11.5 mph - N/A   Clear
11:55 PM 69.8 °F - 48.2 °F 46% 29.97 in 10.0 mi SW 9.2 mph - N/A   Clear